Time;durP1;ratioP1;P1;durP2;ratioP2;P2;SDS_P1;SDS_P2;PMS_P1;PMS_P2;Temp;Humidity;BMP_temperature;BMP_pressure;BME280_temperature;BME280_humidity;BME280_pressure;Samples;Min_cycle;Max_cycle;Signal;HPM_P1;HPM_P2
2022/08/04 00:00:04;;;;;;;;;;;;;;;;;;1029262;28;3342;-47
2022/08/04 00:01:03;;;;;;;;;;;;;;;;;;1032539;28;1907;-51
2022/08/04 00:01:44;;;;;;;;;;;;;;;;;;1032393;28;2479;-50
2022/08/04 00:02:21;;;;;;;;;;;;;;;;;;1032907;28;1637;-48
2022/08/04 00:03:01;;;;;;;;;;;;;;;;;;1029963;28;1689;-48
2022/08/04 00:03:50;;;;;;;;;;;;;;;;;;1028596;28;3538;-50
2022/08/04 00:04:31;;;;;;;;;;;;;;;;;;1029645;28;3600;-50
2022/08/04 00:05:05;;;;;;;;;;;;;;;;;;1029500;28;3390;-48
2022/08/04 00:05:54;;;;;;;;;;;;;;;;;;1028942;28;2544;-48
2022/08/04 00:06:32;;;;;;;;;;;;;;;;;;1029450;28;1821;-47
2022/08/04 00:07:29;;;;;;;;;;;;;;;;;;1029141;28;1666;-49
2022/08/04 00:08:17;;;;;;;;;;;;;;;;;;1026619;28;3147;-48
2022/08/04 00:08:48;;;;;;;;;;;;;;;;;;1032294;28;1595;-48
2022/08/04 00:09:28;;;;;;;;;;;;;;;;;;1030489;28;1583;-46
2022/08/04 00:10:12;;;;;;;;;;;;;;;;;;1029037;28;2013;-48
2022/08/04 00:10:52;;;;;;;;;;;;;;;;;;1029952;28;1544;-48
2022/08/04 00:11:24;;;;;;;;;;;;;;;;;;1028806;28;3490;-48
2022/08/04 00:11:56;;;;;;;;;;;;;;;;;;1029624;28;3375;-49
2022/08/04 00:12:29;;;;;;;;;;;;;;;;;;1030392;28;3898;-48
2022/08/04 00:13:01;;;;;;;;;;;;;;;;;;1030184;28;1578;-50
2022/08/04 00:13:34;;;;;;;;;;;;;;;;;;1029668;28;3395;-49
2022/08/04 00:14:08;;;;;;;;;;;;;;;;;;1029134;28;4108;-47
2022/08/04 00:14:44;;;;;;;;;;;;;;;;;;1029891;28;2426;-47
2022/08/04 00:15:15;;;;;;;;;;;;;;;;;;1029926;28;1753;-49
2022/08/04 00:15:45;;;;;;;;;;;;;;;;;;1029584;28;1774;-47
2022/08/04 00:16:16;;;;;;;;;;;;;;;;;;1028856;28;3205;-49
2022/08/04 00:16:48;;;;;;;;;;;;;;;;;;1026793;28;3857;-49
2022/08/04 00:17:24;;;;;;;;;;;;;;;;;;1028202;28;3627;-48
2022/08/04 00:18:06;;;;;;;;;;;;;;;;;;1029029;28;4128;-51
2022/08/04 00:18:38;;;;;;;;;;;;;;;;;;1029524;28;2702;-48
2022/08/04 00:19:10;;;;;;;;;;;;;;;;;;1028239;28;3808;-49
2022/08/04 00:19:43;;;;;;;;;;;;;;;;;;1030253;28;1693;-50
2022/08/04 00:20:16;;;;;;;;;;;;;;;;;;1027582;28;2968;-49
2022/08/04 00:20:47;;;;;;;;;;;;;;;;;;1029664;28;2673;-48
2022/08/04 00:21:18;;;;;;;;;;;;;;;;;;1029669;28;1915;-48
2022/08/04 00:21:54;;;;;;;;;;;;;;;;;;1029302;28;1740;-47
2022/08/04 00:22:29;;;;;;;;;;;;;;;;;;1028973;28;1758;-51
2022/08/04 00:23:00;;;;;;;;;;;;;;;;;;1028724;28;3688;-48
2022/08/04 00:23:32;;;;;;;;;;;;;;;;;;1028333;28;3649;-48
2022/08/04 00:24:03;;;;;;;;;;;;;;;;;;1029626;28;1657;-48
2022/08/04 00:24:34;;;;;;;;;;;;;;;;;;1028238;28;2284;-47
2022/08/04 00:25:04;;;;;;;;;;;;;;;;;;1030324;28;1862;-50
2022/08/04 00:25:39;;;;;;;;;;;;;;;;;;1029855;28;1681;-48
2022/08/04 00:26:10;;;;;;;;;;;;;;;;;;1033748;28;1721;-48
2022/08/04 00:26:41;;;;;;;;;;;;;;;;;;1031671;28;2521;-49
2022/08/04 00:27:12;;;;;;;;;;;;;;;;;;1033121;28;1567;-50
2022/08/04 00:27:43;;;;;;;;;;;;;;;;;;1032719;28;1741;-47
2022/08/04 00:28:14;;;;;;;;;;;;;;;;;;1028592;28;3094;-48
2022/08/04 00:28:45;;;;;;;;;;;;;;;;;;1029295;28;1955;-46
2022/08/04 00:29:15;;;;;;;;;;;;;;;;;;1029160;28;2836;-50
2022/08/04 00:29:46;;;;;;;;;;;;;;;;;;1028126;28;3685;-48
2022/08/04 00:30:16;;;;;;;;;;;;;;;;;;1027296;28;3202;-52
2022/08/04 00:30:47;;;;;;;;;;;;;;;;;;1029258;28;3191;-48
2022/08/04 00:31:17;;;;;;;;;;;;;;;;;;1030355;28;1806;-50
2022/08/04 00:31:48;;;;;;;;;;;;;;;;;;1029724;28;1932;-49
2022/08/04 00:32:18;;;;;;;;;;;;;;;;;;1030212;28;1602;-47
2022/08/04 00:32:48;;;;;;;;;;;;;;;;;;1028563;28;2793;-48
2022/08/04 00:33:19;;;;;;;;;;;;;;;;;;1029664;28;2914;-47
2022/08/04 00:33:49;;;;;;;;;;;;;;;;;;1027767;28;2800;-49
2022/08/04 00:34:20;;;;;;;;;;;;;;;;;;1030438;28;1608;-49
2022/08/04 00:34:50;;;;;;;;;;;;;;;;;;1029484;28;1635;-49
2022/08/04 00:35:22;;;;;;;;;;;;;;;;;;1030308;28;1704;-46
2022/08/04 00:35:52;;;;;;;;;;;;;;;;;;1028402;28;3209;-50
2022/08/04 00:36:23;;;;;;;;;;;;;;;;;;1029864;28;3224;-46
2022/08/04 00:36:54;;;;;;;;;;;;;;;;;;1030369;28;1987;-47
2022/08/04 00:37:25;;;;;;;;;;;;;;;;;;1029410;28;2035;-48
2022/08/04 00:37:56;;;;;;;;;;;;;;;;;;1028591;28;2392;-48
2022/08/04 00:38:27;;;;;;;;;;;;;;;;;;1028234;28;3019;-49
2022/08/04 00:38:57;;;;;;;;;;;;;;;;;;1030339;28;1588;-46
2022/08/04 00:39:28;;;;;;;;;;;;;;;;;;1027817;28;3143;-47
2022/08/04 00:39:59;;;;;;;;;;;;;;;;;;1030141;28;1676;-50
2022/08/04 00:40:32;;;;;;;;;;;;;;;;;;1029776;28;1951;-50
2022/08/04 00:41:05;;;;;;;;;;;;;;;;;;1028753;28;1838;-49
2022/08/04 00:41:46;;;;;;;;;;;;;;;;;;1029339;28;3316;-48
2022/08/04 00:42:33;;;;;;;;;;;;;;;;;;1033680;28;3708;-47
2022/08/04 00:43:22;;;;;;;;;;;;;;;;;;1033138;28;1679;-48
2022/08/04 00:44:16;;;;;;;;;;;;;;;;;;1032164;28;2087;-47
2022/08/04 00:44:46;;;;;;;;;;;;;;;;;;1029642;28;1769;-47
2022/08/04 00:45:37;;;;;;;;;;;;;;;;;;1030237;28;1597;-48
2022/08/04 00:46:21;;;;;;;;;;;;;;;;;;1029507;28;2073;-48
2022/08/04 00:46:59;;;;;;;;;;;;;;;;;;1029810;28;1761;-48
2022/08/04 00:47:35;;;;;;;;;;;;;;;;;;1030188;28;1492;-49
2022/08/04 00:48:21;;;;;;;;;;;;;;;;;;1028862;28;3274;-48
2022/08/04 00:49:00;;;;;;;;;;;;;;;;;;1029260;28;1603;-49
2022/08/04 00:49:30;;;;;;;;;;;;;;;;;;1030167;28;1750;-47
2022/08/04 00:50:03;;;;;;;;;;;;;;;;;;1029822;28;1836;-49
2022/08/04 00:50:42;;;;;;;;;;;;;;;;;;1029157;28;2863;-48
2022/08/04 00:51:32;;;;;;;;;;;;;;;;;;1028999;28;3330;-49
2022/08/04 00:52:16;;;;;;;;;;;;;;;;;;1029037;28;1696;-49
2022/08/04 00:52:54;;;;;;;;;;;;;;;;;;1029791;28;2332;-47
2022/08/04 00:53:44;;;;;;;;;;;;;;;;;;1028396;28;3198;-46
2022/08/04 00:54:44;;;;;;;;;;;;;;;;;;1032294;28;2319;-49
2022/08/04 00:55:17;;;;;;;;;;;;;;;;;;1024603;28;2003;-49
2022/08/04 00:56:02;;;;;;;;;;;;;;;;;;1025065;28;1661;-49
2022/08/04 00:56:47;;;;;;;;;;;;;;;;;;1025439;28;1288;-47
2022/08/04 00:57:17;;;;;;;;;;;;;;;;;;1028685;28;1937;-48
2022/08/04 00:57:47;;;;;;;;;;;;;;;;;;1028569;28;3053;-53
2022/08/04 00:58:27;;;;;;;;;;;;;;;;;;1028828;28;3299;-48
2022/08/04 00:58:58;;;;;;;;;;;;;;;;;;1028204;28;2946;-47
2022/08/04 00:59:31;;;;;;;;;;;;;;;;;;1029256;28;1611;-48
2022/08/04 01:00:12;;;;;;;;;;;;;;;;;;1029741;28;3144;-47
2022/08/04 01:01:00;;;;;;;;;;;;;;;;;;1029571;28;1790;-50
2022/08/04 01:01:49;;;;;;;;;;;;;;;;;;1028960;28;2083;-48
2022/08/04 01:02:38;;;;;;;;;;;;;;;;;;1028903;28;1967;-50
2022/08/04 01:03:17;;;;;;;;;;;;;;;;;;1029852;28;2104;-46
2022/08/04 01:04:26;;;;;;;;;;;;;;;;;;1028991;28;3196;-47
2022/08/04 01:04:59;;;;;;;;;;;;;;;;;;1023004;28;1746;-50
2022/08/04 01:05:33;;;;;;;;;;;;;;;;;;1023453;28;2355;-49
2022/08/04 01:06:22;;;;;;;;;;;;;;;;;;1023190;28;2617;-48
2022/08/04 01:06:55;;;;;;;;;;;;;;;;;;1024060;28;1885;-49
2022/08/04 01:07:44;;;;;;;;;;;;;;;;;;1021977;28;3191;-49
2022/08/04 01:08:26;;;;;;;;;;;;;;;;;;1023192;28;3310;-49
2022/08/04 01:09:11;;;;;;;;;;;;;;;;;;1019195;29;3028;-48
2022/08/04 01:09:53;;;;;;;;;;;;;;;;;;1018599;29;3357;-48
2022/08/04 01:10:55;;;;;;;;;;;;;;;;;;1017157;29;2113;-49
2022/08/04 01:11:47;;;;;;;;;;;;;;;;;;1029531;28;2331;-47
2022/08/04 01:12:53;;;;;;;;;;;;;;;;;;1030596;28;1820;-47
2022/08/04 01:13:42;;;;;;;;;;;;;;;;;;1016314;29;3833;-49
2022/08/04 01:14:19;;;;;;;;;;;;;;;;;;1017974;29;3394;-49
2022/08/04 01:14:55;;;;;;;;;;;;;;;;;;1017900;29;2150;-49
2022/08/04 01:15:35;;;;;;;;;;;;;;;;;;1017208;29;3356;-48
2022/08/04 01:16:06;;;;;;;;;;;;;;;;;;1024650;28;1433;-48
2022/08/04 01:16:56;;;;;;;;;;;;;;;;;;1030784;28;2108;-48
2022/08/04 01:17:35;;;;;;;;;;;;;;;;;;1030750;28;1845;-48
2022/08/04 01:18:06;;;;;;;;;;;;;;;;;;1028825;28;2560;-49
2022/08/04 01:18:40;;;;;;;;;;;;;;;;;;1025153;28;1959;-47
2022/08/04 01:19:36;;;;;;;;;;;;;;;;;;1025461;28;1637;-49
2022/08/04 01:20:07;;;;;;;;;;;;;;;;;;1023966;28;1716;-47
2022/08/04 01:20:47;;;;;;;;;;;;;;;;;;1029464;28;1898;-49
2022/08/04 01:21:17;;;;;;;;;;;;;;;;;;1030380;28;2447;-50
2022/08/04 01:22:06;;;;;;;;;;;;;;;;;;1030538;28;3015;-48
2022/08/04 01:23:06;;;;;;;;;;;;;;;;;;1029394;28;2913;-49
2022/08/04 01:23:54;;;;;;;;;;;;;;;;;;1029384;28;3187;-48
2022/08/04 01:24:43;;;;;;;;;;;;;;;;;;1030170;28;1518;-45
2022/08/04 01:25:32;;;;;;;;;;;;;;;;;;1030294;28;1641;-48
2022/08/04 01:26:17;;;;;;;;;;;;;;;;;;1030815;28;1607;-48
2022/08/04 01:26:56;;;;;;;;;;;;;;;;;;1029629;28;3298;-47
2022/08/04 01:27:39;;;;;;;;;;;;;;;;;;1030386;28;1592;-48
2022/08/04 01:28:33;;;;;;;;;;;;;;;;;;1030235;28;1165;-48
2022/08/04 01:29:04;;;;;;;;;;;;;;;;;;1028863;28;3723;-47
2022/08/04 01:29:45;;;;;;;;;;;;;;;;;;1030691;28;2645;-48
2022/08/04 01:30:16;;;;;;;;;;;;;;;;;;1029949;28;1706;-48
2022/08/04 01:30:48;;;;;;;;;;;;;;;;;;1029972;28;3213;-47
2022/08/04 01:31:21;;;;;;;;;;;;;;;;;;1026905;28;1704;-50
2022/08/04 01:31:55;;;;;;;;;;;;;;;;;;1026026;28;1874;-47
2022/08/04 01:32:30;;;;;;;;;;;;;;;;;;1025342;28;3238;-50
2022/08/04 01:33:01;;;;;;;;;;;;;;;;;;1028229;28;4173;-49
2022/08/04 01:33:33;;;;;;;;;;;;;;;;;;1025017;28;3242;-47
2022/08/04 01:34:05;;;;;;;;;;;;;;;;;;1026327;28;3446;-47
2022/08/04 01:34:40;;;;;;;;;;;;;;;;;;1027224;28;2003;-50
2022/08/04 01:35:15;;;;;;;;;;;;;;;;;;1024941;28;3186;-48
2022/08/04 01:35:45;;;;;;;;;;;;;;;;;;1029782;28;2895;-48
2022/08/04 01:36:16;;;;;;;;;;;;;;;;;;1029782;28;2340;-49
2022/08/04 01:36:54;;;;;;;;;;;;;;;;;;1030277;28;2528;-47
2022/08/04 01:37:39;;;;;;;;;;;;;;;;;;1029734;28;3397;-49
2022/08/04 01:38:30;;;;;;;;;;;;;;;;;;1030033;28;2508;-50
2022/08/04 01:39:39;;;;;;;;;;;;;;;;;;1022755;28;1824;-48
2022/08/04 01:40:00;;;;;;;;;;;;;;;;;;1030497;28;2862;-49
2022/08/04 01:40:31;;;;;;;;;;;;;;;;;;1030614;28;1883;-46
2022/08/04 01:41:03;;;;;;;;;;;;;;;;;;1030139;28;1713;-49
2022/08/04 01:41:34;;;;;;;;;;;;;;;;;;1029776;28;3227;-49
2022/08/04 01:42:04;;;;;;;;;;;;;;;;;;1029296;28;3179;-48
2022/08/04 01:42:35;;;;;;;;;;;;;;;;;;1029123;28;3147;-47
2022/08/04 01:43:07;;;;;;;;;;;;;;;;;;1026148;28;3395;-47
2022/08/04 01:43:41;;;;;;;;;;;;;;;;;;1024881;28;3059;-47
2022/08/04 01:44:12;;;;;;;;;;;;;;;;;;1025905;28;2783;-48
2022/08/04 01:44:46;;;;;;;;;;;;;;;;;;1026902;28;2036;-47
2022/08/04 01:45:16;;;;;;;;;;;;;;;;;;1030041;28;2087;-49
2022/08/04 01:45:49;;;;;;;;;;;;;;;;;;1026623;28;1854;-48
2022/08/04 01:46:20;;;;;;;;;;;;;;;;;;1025176;28;2550;-49
2022/08/04 01:46:51;;;;;;;;;;;;;;;;;;1022356;29;2539;-52
2022/08/04 01:47:23;;;;;;;;;;;;;;;;;;1021703;28;2667;-47
2022/08/04 01:47:54;;;;;;;;;;;;;;;;;;1025691;28;1949;-50
2022/08/04 01:48:24;;;;;;;;;;;;;;;;;;1026013;28;1937;-48
2022/08/04 01:48:55;;;;;;;;;;;;;;;;;;1029638;28;3350;-47
2022/08/04 01:49:29;;;;;;;;;;;;;;;;;;1029107;28;1705;-49
2022/08/04 01:50:07;;;;;;;;;;;;;;;;;;1029880;28;2940;-47
2022/08/04 01:50:38;;;;;;;;;;;;;;;;;;1028905;28;3255;-46
2022/08/04 01:51:08;;;;;;;;;;;;;;;;;;1029517;28;3026;-47
2022/08/04 01:51:39;;;;;;;;;;;;;;;;;;1029562;28;2199;-47
2022/08/04 01:52:09;;;;;;;;;;;;;;;;;;1029540;28;2732;-47
2022/08/04 01:52:41;;;;;;;;;;;;;;;;;;1030357;28;1771;-48
2022/08/04 01:53:11;;;;;;;;;;;;;;;;;;1029300;28;2803;-47
2022/08/04 01:53:42;;;;;;;;;;;;;;;;;;1029366;28;3465;-48
2022/08/04 01:54:14;;;;;;;;;;;;;;;;;;1029665;28;3661;-49
2022/08/04 01:54:45;;;;;;;;;;;;;;;;;;1029275;28;1968;-50
2022/08/04 01:55:16;;;;;;;;;;;;;;;;;;1030282;28;1747;-51
2022/08/04 01:55:48;;;;;;;;;;;;;;;;;;1028790;28;2964;-52
2022/08/04 01:56:19;;;;;;;;;;;;;;;;;;1030067;28;2362;-48
2022/08/04 01:56:50;;;;;;;;;;;;;;;;;;1030376;28;1572;-47
2022/08/04 01:57:22;;;;;;;;;;;;;;;;;;1029849;28;1326;-48
2022/08/04 01:57:53;;;;;;;;;;;;;;;;;;1029604;28;2663;-50
2022/08/04 01:58:24;;;;;;;;;;;;;;;;;;1029435;28;3391;-49
2022/08/04 01:58:56;;;;;;;;;;;;;;;;;;1030317;28;2001;-48
2022/08/04 01:59:29;;;;;;;;;;;;;;;;;;1030391;28;1654;-48
2022/08/04 02:00:00;;;;;;;;;;;;;;;;;;1029132;28;2275;-47
2022/08/04 02:00:30;;;;;;;;;;;;;;;;;;1030457;28;2376;-49
2022/08/04 02:01:02;;;;;;;;;;;;;;;;;;1029543;28;2300;-47
2022/08/04 02:01:34;;;;;;;;;;;;;;;;;;1030779;28;1910;-50
2022/08/04 02:02:05;;;;;;;;;;;;;;;;;;1030548;28;4682;-47
2022/08/04 02:02:35;;;;;;;;;;;;;;;;;;1029420;28;1906;-48
2022/08/04 02:03:05;;;;;;;;;;;;;;;;;;1030754;28;1783;-47
2022/08/04 02:03:37;;;;;;;;;;;;;;;;;;1030684;28;1607;-47
2022/08/04 02:04:12;;;;;;;;;;;;;;;;;;1030227;28;2151;-49
2022/08/04 02:04:42;;;;;;;;;;;;;;;;;;1030300;28;2071;-50
2022/08/04 02:05:14;;;;;;;;;;;;;;;;;;1030155;28;1729;-47
2022/08/04 02:05:46;;;;;;;;;;;;;;;;;;1030140;28;2212;-49
2022/08/04 02:06:30;;;;;;;;;;;;;;;;;;1030130;28;1726;-47
2022/08/04 02:07:01;;;;;;;;;;;;;;;;;;1030686;28;1594;-48
2022/08/04 02:07:49;;;;;;;;;;;;;;;;;;1028937;28;3429;-48
2022/08/04 02:08:37;;;;;;;;;;;;;;;;;;1029762;28;3218;-50
2022/08/04 02:09:11;;;;;;;;;;;;;;;;;;1029186;28;3170;-46
2022/08/04 02:09:46;;;;;;;;;;;;;;;;;;1030537;28;1930;-48
2022/08/04 02:10:32;;;;;;;;;;;;;;;;;;1029922;28;1355;-49
2022/08/04 02:11:19;;;;;;;;;;;;;;;;;;1033689;28;1717;-47
2022/08/04 02:11:59;;;;;;;;;;;;;;;;;;1032559;28;2568;-48
2022/08/04 02:12:30;;;;;;;;;;;;;;;;;;1029828;28;2451;-48
2022/08/04 02:13:03;;;;;;;;;;;;;;;;;;1027828;28;3600;-48
2022/08/04 02:13:52;;;;;;;;;;;;;;;;;;1029426;28;3497;-47
2022/08/04 02:14:41;;;;;;;;;;;;;;;;;;1032783;28;2207;-46
2022/08/04 02:15:15;;;;;;;;;;;;;;;;;;1027832;28;2032;-48
2022/08/04 02:15:45;;;;;;;;;;;;;;;;;;1030368;28;2998;-47
2022/08/04 02:16:23;;;;;;;;;;;;;;;;;;1029026;28;2179;-47
2022/08/04 02:16:53;;;;;;;;;;;;;;;;;;1030212;28;1688;-49
2022/08/04 02:17:42;;;;;;;;;;;;;;;;;;1029794;28;2515;-48
2022/08/04 02:18:19;;;;;;;;;;;;;;;;;;1028496;28;3134;-50
2022/08/04 02:19:01;;;;;;;;;;;;;;;;;;1030958;28;1582;-49
2022/08/04 02:19:34;;;;;;;;;;;;;;;;;;1028728;28;2919;-48
2022/08/04 02:20:27;;;;;;;;;;;;;;;;;;1030939;28;1602;-49
2022/08/04 02:21:00;;;;;;;;;;;;;;;;;;1021154;28;2525;-50
2022/08/04 02:21:31;;;;;;;;;;;;;;;;;;1029034;28;3179;-47
2022/08/04 02:22:05;;;;;;;;;;;;;;;;;;1030020;28;1778;-48
2022/08/04 02:22:39;;;;;;;;;;;;;;;;;;1029089;28;2552;-48
2022/08/04 02:23:13;;;;;;;;;;;;;;;;;;1030001;28;2326;-47
2022/08/04 02:23:45;;;;;;;;;;;;;;;;;;1030725;28;3212;-48
2022/08/04 02:24:17;;;;;;;;;;;;;;;;;;1029384;28;1967;-47
2022/08/04 02:24:56;;;;;;;;;;;;;;;;;;1030394;28;1697;-47
2022/08/04 02:25:27;;;;;;;;;;;;;;;;;;1028595;28;3338;-47
2022/08/04 02:26:03;;;;;;;;;;;;;;;;;;1029460;28;2473;-48
2022/08/04 02:26:34;;;;;;;;;;;;;;;;;;1030168;28;2781;-49
2022/08/04 02:27:05;;;;;;;;;;;;;;;;;;1029735;28;2278;-47
2022/08/04 02:27:57;;;;;;;;;;;;;;;;;;1030626;28;1388;-48
2022/08/04 02:28:30;;;;;;;;;;;;;;;;;;1029022;28;3258;-48
2022/08/04 02:29:16;;;;;;;;;;;;;;;;;;1029853;28;3620;-47
2022/08/04 02:29:50;;;;;;;;;;;;;;;;;;1030766;28;2122;-50
2022/08/04 02:30:27;;;;;;;;;;;;;;;;;;1029102;28;3337;-48
2022/08/04 02:31:10;;;;;;;;;;;;;;;;;;1029610;28;3954;-50
2022/08/04 02:31:56;;;;;;;;;;;;;;;;;;1029680;28;3839;-50
2022/08/04 02:32:28;;;;;;;;;;;;;;;;;;1029821;28;3573;-49
2022/08/04 02:33:01;;;;;;;;;;;;;;;;;;1029407;28;1670;-49
2022/08/04 02:33:54;;;;;;;;;;;;;;;;;;1028932;28;1957;-49
2022/08/04 02:34:24;;;;;;;;;;;;;;;;;;1029522;28;2290;-48
2022/08/04 02:35:09;;;;;;;;;;;;;;;;;;1026000;28;1736;-51
2022/08/04 02:35:40;;;;;;;;;;;;;;;;;;1024267;28;2917;-48
2022/08/04 02:36:15;;;;;;;;;;;;;;;;;;1026213;28;2870;-49
2022/08/04 02:36:47;;;;;;;;;;;;;;;;;;1028679;28;1691;-47
2022/08/04 02:37:18;;;;;;;;;;;;;;;;;;1028115;28;3070;-49
2022/08/04 02:38:08;;;;;;;;;;;;;;;;;;1029917;28;3520;-49
2022/08/04 02:38:52;;;;;;;;;;;;;;;;;;1029506;28;3739;-51
2022/08/04 02:39:22;;;;;;;;;;;;;;;;;;1028963;28;2326;-48
2022/08/04 02:39:53;;;;;;;;;;;;;;;;;;1030487;28;2409;-47
2022/08/04 02:40:23;;;;;;;;;;;;;;;;;;1030388;28;1863;-47
2022/08/04 02:40:55;;;;;;;;;;;;;;;;;;1030285;28;1703;-47
2022/08/04 02:41:29;;;;;;;;;;;;;;;;;;1028924;28;3240;-49
2022/08/04 02:42:01;;;;;;;;;;;;;;;;;;1033021;28;3108;-48
2022/08/04 02:42:31;;;;;;;;;;;;;;;;;;1033387;28;1692;-49
2022/08/04 02:43:02;;;;;;;;;;;;;;;;;;1033494;28;2210;-51
2022/08/04 02:43:34;;;;;;;;;;;;;;;;;;1031991;28;2806;-49
2022/08/04 02:44:06;;;;;;;;;;;;;;;;;;1029836;28;2139;-47
2022/08/04 02:44:38;;;;;;;;;;;;;;;;;;1029666;28;2280;-49
2022/08/04 02:45:08;;;;;;;;;;;;;;;;;;1028496;28;3316;-47
2022/08/04 02:45:40;;;;;;;;;;;;;;;;;;1031457;28;2763;-48
2022/08/04 02:46:11;;;;;;;;;;;;;;;;;;1032858;28;3373;-50
2022/08/04 02:46:41;;;;;;;;;;;;;;;;;;1033139;28;1634;-48
2022/08/04 02:47:12;;;;;;;;;;;;;;;;;;1033871;28;1690;-50
2022/08/04 02:47:43;;;;;;;;;;;;;;;;;;1029567;28;2513;-47
2022/08/04 02:48:14;;;;;;;;;;;;;;;;;;1029270;28;2837;-47
2022/08/04 02:48:45;;;;;;;;;;;;;;;;;;1028829;28;2966;-47
2022/08/04 02:49:16;;;;;;;;;;;;;;;;;;1029673;28;2428;-49
2022/08/04 02:49:48;;;;;;;;;;;;;;;;;;1029599;28;3323;-47
2022/08/04 02:50:26;;;;;;;;;;;;;;;;;;1030383;28;1634;-50
2022/08/04 02:50:58;;;;;;;;;;;;;;;;;;1028740;28;3266;-48
2022/08/04 02:51:29;;;;;;;;;;;;;;;;;;1030282;28;2309;-47
2022/08/04 02:51:59;;;;;;;;;;;;;;;;;;1028934;28;2942;-48
2022/08/04 02:52:30;;;;;;;;;;;;;;;;;;1029794;28;3483;-47
2022/08/04 02:53:01;;;;;;;;;;;;;;;;;;1028903;28;3191;-48
2022/08/04 02:53:32;;;;;;;;;;;;;;;;;;1030593;28;1719;-47
2022/08/04 02:54:04;;;;;;;;;;;;;;;;;;1028989;28;3334;-46
2022/08/04 02:54:38;;;;;;;;;;;;;;;;;;1029978;28;3421;-49
2022/08/04 02:55:10;;;;;;;;;;;;;;;;;;1034017;28;1676;-48
2022/08/04 02:55:43;;;;;;;;;;;;;;;;;;1033880;28;2118;-50
2022/08/04 02:56:14;;;;;;;;;;;;;;;;;;1033796;28;1983;-47
2022/08/04 02:56:45;;;;;;;;;;;;;;;;;;1033237;28;1606;-50
2022/08/04 02:57:15;;;;;;;;;;;;;;;;;;1033188;28;2662;-47
2022/08/04 02:57:48;;;;;;;;;;;;;;;;;;1029910;28;2840;-49
2022/08/04 02:58:19;;;;;;;;;;;;;;;;;;1029940;28;1739;-50
2022/08/04 02:58:55;;;;;;;;;;;;;;;;;;1028323;28;3366;-46
2022/08/04 02:59:26;;;;;;;;;;;;;;;;;;1029935;28;1614;-50
2022/08/04 03:00:02;;;;;;;;;;;;;;;;;;1028785;28;3251;-49
2022/08/04 03:00:33;;;;;;;;;;;;;;;;;;1029767;28;3753;-47
2022/08/04 03:01:03;;;;;;;;;;;;;;;;;;1030201;28;1931;-49
2022/08/04 03:01:34;;;;;;;;;;;;;;;;;;1033395;28;1993;-48
2022/08/04 03:02:04;;;;;;;;;;;;;;;;;;1031843;28;3245;-48
2022/08/04 03:02:49;;;;;;;;;;;;;;;;;;1033065;28;3268;-48
2022/08/04 03:03:47;;;;;;;;;;;;;;;;;;1031794;28;1797;-50
2022/08/04 03:04:26;;;;;;;;;;;;;;;;;;1029872;28;3447;-47
2022/08/04 03:04:59;;;;;;;;;;;;;;;;;;1029799;28;1847;-50
2022/08/04 03:05:41;;;;;;;;;;;;;;;;;;1029846;28;1666;-48
2022/08/04 03:06:30;;;;;;;;;;;;;;;;;;1030184;28;2071;-47
2022/08/04 03:07:25;;;;;;;;;;;;;;;;;;1029904;28;1435;-47
2022/08/04 03:08:14;;;;;;;;;;;;;;;;;;1028544;28;2275;-49
2022/08/04 03:08:50;;;;;;;;;;;;;;;;;;1030338;28;3226;-47
2022/08/04 03:09:21;;;;;;;;;;;;;;;;;;1029251;28;2045;-48
2022/08/04 03:09:54;;;;;;;;;;;;;;;;;;1030588;28;1295;-48
2022/08/04 03:10:56;;;;;;;;;;;;;;;;;;1032095;28;1740;-49
2022/08/04 03:11:46;;;;;;;;;;;;;;;;;;1032127;28;3245;-48
2022/08/04 03:12:35;;;;;;;;;;;;;;;;;;1031599;28;2174;-51
2022/08/04 03:13:24;;;;;;;;;;;;;;;;;;1033673;28;1725;-50
2022/08/04 03:14:06;;;;;;;;;;;;;;;;;;1033730;28;1721;-48
2022/08/04 03:14:45;;;;;;;;;;;;;;;;;;1032958;28;3215;-49
2022/08/04 03:15:15;;;;;;;;;;;;;;;;;;1028186;28;2778;-49
2022/08/04 03:16:04;;;;;;;;;;;;;;;;;;1030850;28;2986;-49
2022/08/04 03:16:49;;;;;;;;;;;;;;;;;;1028790;28;3355;-47
2022/08/04 03:17:20;;;;;;;;;;;;;;;;;;1029002;28;2771;-47
2022/08/04 03:17:50;;;;;;;;;;;;;;;;;;1029747;28;2651;-47
2022/08/04 03:18:39;;;;;;;;;;;;;;;;;;1029381;28;2446;-47
2022/08/04 03:19:28;;;;;;;;;;;;;;;;;;1029815;28;2265;-49
2022/08/04 03:20:17;;;;;;;;;;;;;;;;;;1029376;28;1953;-49
2022/08/04 03:21:08;;;;;;;;;;;;;;;;;;1028013;28;2444;-46
2022/08/04 03:21:48;;;;;;;;;;;;;;;;;;1030178;28;1907;-50
2022/08/04 03:22:28;;;;;;;;;;;;;;;;;;1030606;28;1712;-47
2022/08/04 03:23:10;;;;;;;;;;;;;;;;;;1030418;28;1646;-49
2022/08/04 03:23:43;;;;;;;;;;;;;;;;;;1028283;28;3065;-46
2022/08/04 03:24:31;;;;;;;;;;;;;;;;;;1030343;28;1648;-47
2022/08/04 03:25:10;;;;;;;;;;;;;;;;;;1029250;28;3337;-47
2022/08/04 03:25:59;;;;;;;;;;;;;;;;;;1029222;28;3520;-49
2022/08/04 03:26:38;;;;;;;;;;;;;;;;;;1028078;28;2607;-48
2022/08/04 03:27:21;;;;;;;;;;;;;;;;;;1029970;28;1616;-48
2022/08/04 03:27:51;;;;;;;;;;;;;;;;;;1029826;28;2090;-50
2022/08/04 03:28:30;;;;;;;;;;;;;;;;;;1032350;28;2561;-48
2022/08/04 03:29:30;;;;;;;;;;;;;;;;;;1034304;28;1809;-47
2022/08/04 03:30:09;;;;;;;;;;;;;;;;;;1020760;28;2934;-51
2022/08/04 03:31:09;;;;;;;;;;;;;;;;;;1029982;28;1908;-48
2022/08/04 03:31:58;;;;;;;;;;;;;;;;;;1029466;28;3433;-47
2022/08/04 03:32:34;;;;;;;;;;;;;;;;;;1029154;28;3330;-48
2022/08/04 03:33:33;;;;;;;;;;;;;;;;;;1030270;28;3572;-51
2022/08/04 03:34:24;;;;;;;;;;;;;;;;;;1028980;28;3330;-49
2022/08/04 03:35:13;;;;;;;;;;;;;;;;;;1029892;28;1715;-49
2022/08/04 03:36:02;;;;;;;;;;;;;;;;;;1028775;28;3247;-48
2022/08/04 03:37:02;;;;;;;;;;;;;;;;;;1028395;28;3612;-49
2022/08/04 03:37:50;;;;;;;;;;;;;;;;;;1029559;28;1822;-50
2022/08/04 03:38:23;;;;;;;;;;;;;;;;;;1031487;28;3778;-48
2022/08/04 03:39:02;;;;;;;;;;;;;;;;;;1032950;28;1954;-48
2022/08/04 03:39:35;;;;;;;;;;;;;;;;;;1029670;28;2536;-50
2022/08/04 03:40:24;;;;;;;;;;;;;;;;;;1029232;28;2413;-47
2022/08/04 03:41:04;;;;;;;;;;;;;;;;;;1028797;28;3176;-50
2022/08/04 03:41:53;;;;;;;;;;;;;;;;;;1029332;28;1934;-49
2022/08/04 03:42:26;;;;;;;;;;;;;;;;;;1029896;28;1634;-48
2022/08/04 03:43:02;;;;;;;;;;;;;;;;;;1029823;28;1706;-49
2022/08/04 03:43:38;;;;;;;;;;;;;;;;;;1030352;28;1586;-48
2022/08/04 03:44:35;;;;;;;;;;;;;;;;;;1030162;28;1647;-49
2022/08/04 03:45:17;;;;;;;;;;;;;;;;;;1029412;28;1796;-50
2022/08/04 03:45:54;;;;;;;;;;;;;;;;;;1030207;28;1681;-49
2022/08/04 03:46:24;;;;;;;;;;;;;;;;;;1030143;28;1704;-47
2022/08/04 03:47:03;;;;;;;;;;;;;;;;;;1029605;28;1723;-46
2022/08/04 03:47:48;;;;;;;;;;;;;;;;;;1030326;28;1720;-48
2022/08/04 03:48:37;;;;;;;;;;;;;;;;;;1028939;28;2327;-48
2022/08/04 03:49:25;;;;;;;;;;;;;;;;;;1029108;28;1729;-47
2022/08/04 03:50:13;;;;;;;;;;;;;;;;;;1029432;28;1879;-50
2022/08/04 03:53:07;;;;;;;;;;;;;;;;;;1029719;28;1650;-50
2022/08/04 03:53:09;;;;;;;;;;;;;;;;;;1030352;28;1691;-48
2022/08/04 03:53:49;;;;;;;;;;;;;;;;;;1029247;28;3029;-49
2022/08/04 03:54:31;;;;;;;;;;;;;;;;;;1028440;28;3266;-48
2022/08/04 03:55:28;;;;;;;;;;;;;;;;;;1029179;28;2740;-48
2022/08/04 03:56:04;;;;;;;;;;;;;;;;;;1027681;28;2568;-47
2022/08/04 03:56:50;;;;;;;;;;;;;;;;;;1029496;28;2665;-50
2022/08/04 03:57:38;;;;;;;;;;;;;;;;;;1028990;28;3253;-48
2022/08/04 03:58:21;;;;;;;;;;;;;;;;;;1029311;28;2751;-48
2022/08/04 03:58:58;;;;;;;;;;;;;;;;;;1029955;28;1592;-48
2022/08/04 03:59:55;;;;;;;;;;;;;;;;;;1028135;28;3094;-48
2022/08/04 04:00:32;;;;;;;;;;;;;;;;;;1028865;28;3267;-46
2022/08/04 04:01:03;;;;;;;;;;;;;;;;;;1028855;28;2497;-49
2022/08/04 04:01:41;;;;;;;;;;;;;;;;;;1029856;28;2412;-47
2022/08/04 04:02:30;;;;;;;;;;;;;;;;;;1029660;28;2832;-49
2022/08/04 04:03:03;;;;;;;;;;;;;;;;;;1028845;28;3075;-50
2022/08/04 04:03:33;;;;;;;;;;;;;;;;;;1029420;28;2561;-48
2022/08/04 04:04:22;;;;;;;;;;;;;;;;;;1029846;28;3170;-47
2022/08/04 04:05:10;;;;;;;;;;;;;;;;;;1030235;28;1661;-48
2022/08/04 04:06:00;;;;;;;;;;;;;;;;;;1029349;28;1765;-48
2022/08/04 04:06:31;;;;;;;;;;;;;;;;;;1028435;28;1704;-49
2022/08/04 04:07:20;;;;;;;;;;;;;;;;;;1026211;28;1705;-48
2022/08/04 04:08:13;;;;;;;;;;;;;;;;;;1028650;28;3356;-47
2022/08/04 04:09:04;;;;;;;;;;;;;;;;;;1028808;28;3618;-47
2022/08/04 04:09:40;;;;;;;;;;;;;;;;;;1029370;28;1958;-47
2022/08/04 04:10:29;;;;;;;;;;;;;;;;;;1029413;28;3341;-47
2022/08/04 04:11:31;;;;;;;;;;;;;;;;;;1028568;28;3088;-48
2022/08/04 04:12:20;;;;;;;;;;;;;;;;;;1029644;28;3302;-47
2022/08/04 04:13:11;;;;;;;;;;;;;;;;;;1029256;28;2087;-49
2022/08/04 04:13:53;;;;;;;;;;;;;;;;;;1024169;28;3258;-47
2022/08/04 04:14:37;;;;;;;;;;;;;;;;;;1025323;28;1636;-47
2022/08/04 04:15:07;;;;;;;;;;;;;;;;;;1028920;28;3329;-49
2022/08/04 04:15:46;;;;;;;;;;;;;;;;;;1028974;28;2795;-48
2022/08/04 04:16:16;;;;;;;;;;;;;;;;;;1030129;28;1997;-49
2022/08/04 04:17:04;;;;;;;;;;;;;;;;;;1029204;28;1972;-49
2022/08/04 04:17:37;;;;;;;;;;;;;;;;;;1029277;28;2227;-50
2022/08/04 04:18:37;;;;;;;;;;;;;;;;;;1030197;28;1590;-50
2022/08/04 04:19:21;;;;;;;;;;;;;;;;;;1029372;28;2302;-50
2022/08/04 04:20:10;;;;;;;;;;;;;;;;;;1027836;28;2929;-48
2022/08/04 04:21:13;;;;;;;;;;;;;;;;;;1030131;28;3545;-47
2022/08/04 04:22:02;;;;;;;;;;;;;;;;;;1025191;28;2130;-48
2022/08/04 04:22:34;;;;;;;;;;;;;;;;;;1024830;28;3181;-47
2022/08/04 04:23:21;;;;;;;;;;;;;;;;;;1029695;28;3336;-46
2022/08/04 04:24:17;;;;;;;;;;;;;;;;;;1029351;28;1724;-48
2022/08/04 04:25:23;;;;;;;;;;;;;;;;;;1029823;28;3640;-47
2022/08/04 04:26:05;;;;;;;;;;;;;;;;;;1023252;28;3880;-49
2022/08/04 04:26:35;;;;;;;;;;;;;;;;;;1025725;28;2141;-48
2022/08/04 04:27:24;;;;;;;;;;;;;;;;;;1024122;28;3172;-47